TAFOR
Diposting tanggal: 30 Agustus 2018

Pukul : 06-18

Isi :

TAF WAGI 180500Z 1806/1818 00000KT 9999 BKN012 TEMPO 1806/1810 3000 -TSRA FEW012CB BKN012=